Nearby METAR Reports

 

KGRB - Ashwaubenon, Wisconsin, USA
Distance from station: WSW 10mi, 16km
Updated: 01/20/2018 9:53pm
Mist, Clear
Mist, Clear
 Wind from calm
Wind: Calm
Temperature: 30°F , -1°C
Dew Point: 28°F , -2°C
Humidity: 93%
Barometer: 29.95 inHg , 1014.2 hPa
Summary: Mist
Clouds: Clear
Visibility: 4 miles , 6 km
2018/01/21 03:53 KGRB 210353Z 00000KT 4SM BR CLR M01/M02 A2995 RMK AO2 SLP151 T10061017
KOCQ - Oconto, Wisconsin, USA
Distance from station: N 24mi, 39km
Updated: 01/20/2018 9:55pm
Clear
Clear
 Wind from calm
Wind: Calm
Temperature: 28°F , -2°C
Dew Point: 27°F , -3°C
Humidity: 93%
Barometer: 29.94 inHg , 1013.9 hPa
Clouds: Clear
Visibility: 10 miles , 16 km
2018/01/21 03:55 KOCQ 210355Z AUTO 00000KT 10SM CLR M02/M03 A2994 RMK AO1 T10201027
KMTW - Manitowac Muni, Wisconsin, USA
Distance from station: SSE 31mi, 49km
Updated: 01/20/2018 9:56pm
Mist, Clear
Mist, Clear
 Wind from calm
Wind: Calm
Temperature: 28°F , -2°C
Dew Point: 28°F , -2°C
Humidity: 100%
Barometer: 29.96 inHg , 1014.6 hPa
Summary: Mist
Clouds: Clear
Visibility: 6 miles , 10 km
2018/01/21 03:56 KMTW 210356Z AUTO 00000KT 6SM BR CLR M02/M02 A2996 RMK AO2 SLP170 T10171022 FZRANO
 
KATW - Appleton/Outagam, Wisconsin, USA
Distance from station: WSW 33mi, 54km
Updated: 01/20/2018 9:45pm
Mostly cloudy
Mostly cloudy
 Wind from calm
Wind: Calm
Temperature: 32°F , 0°C
Dew Point: 27°F , -3°C
Humidity: 80%
Barometer: 29.93 inHg , 1013.5 hPa
Clouds: Mostly cloudy
Visibility: 10 miles , 16 km
Cloud details: Mostly cloudy 12000 ft
2018/01/21 03:45 KATW 210345Z 00000KT 10SM BKN120 00/M03 A2993
KSUE - Sturgeon Bay, Wisconsin, USA
Distance from station: NE 34mi, 55km
Updated: 01/20/2018 9:56pm
Clear
Clear
 Wind from calm
Wind: Calm
Temperature: 34°F , 1°C
Dew Point: 28°F , -2°C
Humidity: 81%
Barometer: 29.96 inHg , 1014.6 hPa
Clouds: Clear
Visibility: 10 miles , 16 km
2018/01/21 03:56 KSUE 210356Z AUTO 00000KT 10SM CLR 01/M02 A2996 RMK AO2 SLP170 T00061017 FZRANO
KEZS - Shawano Muni, Wisconsin, USA
Distance from station: WNW 36mi, 58km
Updated: 01/20/2018 10:15pm
Partly cloudy
Partly cloudy
 Wind from calm
Wind: Calm
Temperature: 32°F , 0°C
Dew Point: 28°F , -2°C
Humidity: 87%
Barometer: 29.94 inHg , 1013.9 hPa
Clouds: Partly cloudy
Visibility: 10 miles , 16 km
Cloud details: Partly cloudy 12000 ft
2018/01/21 04:15 KEZS 210415Z AUTO 00000KT 10SM SCT120 00/M02 A2994 RMK AO2 T00001016
 
KCLI - Clintonville, Wisconsin, USA
Distance from station: W 40mi, 64km
Updated: 01/20/2018 9:55pm
Clear
Clear
 Wind from calm
Wind: Calm
Temperature: 30°F , -1°C
Dew Point: 28°F , -2°C
Humidity: 93%
Barometer: 29.94 inHg , 1013.9 hPa
Clouds: Clear
Visibility: 10 miles , 16 km
2018/01/21 03:55 KCLI 210355Z AUTO 00000KT 10SM CLR M01/M02 A2994 RMK AO2
KMNM - Menominee, Michigan, USA
Distance from station: NNE 44mi, 72km
Updated: 01/20/2018 9:56pm
Clear
Clear
 Wind from calm
Wind: Calm
Temperature: 36°F , 2°C
Dew Point: 30°F , -1°C
Humidity: 81%
Barometer: 29.96 inHg , 1014.6 hPa
Clouds: Clear
Visibility: 10 miles , 16 km
2018/01/21 03:56 KMNM 210356Z AUTO 00000KT 10SM CLR 02/M01 A2996 RMK AO2 SLP166 T00171011 FZRANO $
KOSH - Oshkosh, Wisconsin, USA
Distance from station: SW 49mi, 78km
Updated: 01/20/2018 9:53pm
Clear
Clear
 Wind from SSW
Wind: SSW 5 mph , 7 km/h
Temperature: 32°F , 0°C
Wind Chill: 27°F , -3°C
Dew Point: 28°F , -2°C
Humidity: 87%
Barometer: 29.94 inHg , 1013.9 hPa
Clouds: Clear
Visibility: 8 miles , 13 km
2018/01/21 03:53 KOSH 210353Z 20004KT 8SM CLR 00/M02 A2994 RMK AO2 SLP151 T00001017